Terminal Aerodrome Forecast
Issued by NWS

Home | Current Version | Previous Version | Graphics & Text | Print | Product List | Glossary On
Versions: 1 2 3 4 5 6 7 8 9 10 11 12 13 14 15 16 17
000
FTUS43 KICT 212130 AAA
TAFCNU
TAF AMD
KCNU 212130Z 2122/2218 04015G22KT P6SM VCSH OVC017
     FM220000 05016G24KT 5SM -SHRA OVC014
     FM220700 01017G25KT P6SM OVC015=

USA.gov is the U.S. government's official web portal to all federal, state and local government web resources and services.